Time;durP1;ratioP1;P1;durP2;ratioP2;P2;SDS_P1;SDS_P2;PMS_P1;PMS_P2;Temp;Humidity;BMP_temperature;BMP_pressure;BME280_temperature;BME280_humidity;BME280_pressure;Samples;Min_cycle;Max_cycle;Signal;HPM_P1;HPM_P2
2022/01/30 00:01:34;;;;;;;22.55;4.15;;;7.60;99.90;;;;;;4863274;29;20049;-83
2022/01/30 00:04:00;;;;;;;20.73;4.65;;;9.30;99.90;;;;;;4879322;29;20104;-83
2022/01/30 00:06:25;;;;;;;21.30;3.95;;;9.00;99.90;;;;;;4867845;29;20107;-83
2022/01/30 00:08:51;;;;;;;20.75;4.57;;;9.00;99.90;;;;;;4865652;29;20052;-83
2022/01/30 00:11:22;;;;;;;27.65;5.75;;;8.70;99.90;;;;;;4882835;29;20165;-83
2022/01/30 00:13:47;;;;;;;14.18;3.72;;;7.70;99.90;;;;;;4862684;29;20128;-83
2022/01/30 00:16:16;;;;;;;13.65;3.70;;;7.70;99.90;;;;;;4878474;29;20128;-83
2022/01/30 00:18:55;;;;;;;10.52;2.95;;;7.80;99.90;;;;;;4885108;29;20177;-83
2022/01/30 00:24:00;;;;;;;27.90;3.50;;;7.40;99.90;;;;;;4876333;29;20116;-83
2022/01/30 00:26:29;;;;;;;17.92;3.38;;;6.90;99.90;;;;;;4878524;29;20405;-83
2022/01/30 00:28:55;;;;;;;18.63;3.47;;;7.50;99.90;;;;;;4880454;29;20405;-83
2022/01/30 00:31:23;;;;;;;19.58;3.47;;;7.00;99.90;;;;;;4879131;29;20049;-84
2022/01/30 00:33:49;;;;;;;16.52;2.67;;;8.80;99.90;;;;;;4879300;29;20513;-82
2022/01/30 00:36:14;;;;;;;15.52;3.00;;;8.10;99.90;;;;;;4878369;29;20056;-82
2022/01/30 00:38:41;;;;;;;20.83;3.40;;;7.30;99.90;;;;;;4878447;29;20632;-82
2022/01/30 00:41:08;;;;;;;16.85;3.38;;;8.90;99.90;;;;;;4879824;29;20445;-83
2022/01/30 00:43:33;;;;;;;20.38;3.42;;;6.90;99.90;;;;;;4882663;29;20048;-84
2022/01/30 00:45:59;;;;;;;16.77;4.30;;;7.30;99.90;;;;;;4882754;29;20053;-83
2022/01/30 00:48:25;;;;;;;29.75;4.57;;;7.40;99.90;;;;;;4885549;29;20044;-83
2022/01/30 00:50:51;;;;;;;21.85;3.88;;;7.80;99.90;;;;;;4866887;29;20549;-83
2022/01/30 00:53:17;;;;;;;26.98;5.45;;;7.00;99.90;;;;;;4863248;29;20048;-83
2022/01/30 00:55:43;;;;;;;22.35;5.85;;;6.80;99.90;;;;;;4883049;29;20043;-83
2022/01/30 00:58:09;;;;;;;20.50;5.25;;;7.10;99.90;;;;;;4900353;29;20536;-83
2022/01/30 01:00:35;;;;;;;23.58;3.92;;;7.40;99.90;;;;;;4898980;29;20048;-83
2022/01/30 01:03:02;;;;;;;30.80;5.40;;;7.10;99.90;;;;;;4882738;29;20502;-83
2022/01/30 01:05:29;;;;;;;20.45;4.35;;;7.30;99.90;;;;;;4881095;29;20439;-83
2022/01/30 01:07:57;;;;;;;21.98;4.32;;;7.20;99.90;;;;;;4881752;29;20052;-83
2022/01/30 01:10:38;;;;;;;18.75;3.65;;;7.90;99.90;;;;;;4882512;29;20485;-83
2022/01/30 01:13:48;;;;;;;31.42;4.15;;;8.80;99.90;;;;;;4881890;29;20067;-83
2022/01/30 01:24:08;;;;;;;28.83;5.38;;;7.50;99.90;;;;;;4881304;29;20505;-83
2022/01/30 01:26:36;;;;;;;34.67;5.30;;;8.90;99.90;;;;;;4882173;29;20123;-83
2022/01/30 01:29:02;;;;;;;32.67;5.45;;;8.70;99.90;;;;;;4856300;29;20468;-84
2022/01/30 01:31:28;;;;;;;25.30;5.43;;;7.30;99.90;;;;;;4881386;29;20076;-83
2022/01/30 01:34:22;;;;;;;22.85;4.55;;;9.10;99.90;;;;;;4879182;29;20088;-83
2022/01/30 01:36:48;;;;;;;18.95;4.70;;;8.30;99.90;;;;;;4881111;29;20048;-83
2022/01/30 01:39:13;;;;;;;35.53;5.28;;;8.30;99.90;;;;;;4886426;29;20052;-83
2022/01/30 01:41:39;;;;;;;17.90;4.53;;;8.80;99.90;;;;;;4880955;29;20058;-83
2022/01/30 01:44:14;;;;;;;20.83;3.85;;;9.40;99.90;;;;;;4881311;29;20032;-83
2022/01/30 01:46:42;;;;;;;12.98;3.35;;;8.70;99.90;;;;;;4881222;29;20052;-83
2022/01/30 01:49:10;;;;;;;20.08;4.50;;;7.70;99.90;;;;;;4852999;29;20041;-83
2022/01/30 01:51:36;;;;;;;18.50;4.00;;;7.60;99.90;;;;;;4880929;29;20476;-83
2022/01/30 01:54:02;;;;;;;19.27;4.28;;;7.70;99.90;;;;;;4881058;29;20040;-83
2022/01/30 01:56:28;;;;;;;18.23;3.67;;;7.30;99.90;;;;;;4863088;29;20048;-83
2022/01/30 01:58:54;;;;;;;12.90;3.22;;;8.00;99.90;;;;;;4881837;29;20052;-83
2022/01/30 02:01:20;;;;;;;19.98;3.47;;;8.90;99.90;;;;;;4880687;29;20043;-83
2022/01/30 02:03:47;;;;;;;20.23;3.20;;;7.20;99.90;;;;;;4880933;29;20413;-83
2022/01/30 02:06:17;;;;;;;26.67;4.53;;;7.40;99.90;;;;;;4878294;29;20106;-83
2022/01/30 02:08:50;;;;;;;31.65;3.97;;;7.20;99.90;;;;;;4879968;29;20048;-83
2022/01/30 02:11:29;;;;;;;20.90;4.93;;;7.90;99.90;;;;;;4859343;29;20113;-83
2022/01/30 02:27:17;;;;;;;25.80;4.82;;;7.20;99.90;;;;;;4880401;29;20050;-83
2022/01/30 02:29:43;;;;;;;36.05;6.03;;;7.60;99.90;;;;;;4879027;29;20140;-83
2022/01/30 02:32:08;;;;;;;27.90;5.10;;;7.40;99.90;;;;;;4880234;29;20047;-83
2022/01/30 02:34:34;;;;;;;20.02;5.03;;;7.70;99.90;;;;;;4880215;29;20056;-83
2022/01/30 02:37:00;;;;;;;29.70;5.25;;;8.90;99.90;;;;;;4881642;29;20135;-83
2022/01/30 02:39:26;;;;;;;21.65;4.35;;;8.40;99.90;;;;;;4879577;29;20069;-83
2022/01/30 02:41:53;;;;;;;23.48;5.00;;;7.20;99.90;;;;;;4881930;29;20087;-83
2022/01/30 02:44:24;;;;;;;18.17;4.15;;;8.20;99.90;;;;;;4881417;29;20045;-83
2022/01/30 02:46:53;;;;;;;24.38;5.63;;;8.90;99.90;;;;;;4880838;29;20386;-83
2022/01/30 02:51:50;;;;;;;31.33;6.55;;;7.60;99.90;;;;;;4898529;29;20087;-83
2022/01/30 02:54:17;;;;;;;27.30;4.80;;;7.50;99.90;;;;;;4895197;29;20055;-83
2022/01/30 02:56:43;;;;;;;29.23;6.35;;;7.70;99.90;;;;;;4881251;29;20060;-83
2022/01/30 02:59:08;;;;;;;31.05;6.47;;;8.20;99.90;;;;;;4879662;29;20044;-83
2022/01/30 03:01:34;;;;;;;30.45;5.43;;;8.50;99.90;;;;;;4879902;29;20048;-83
2022/01/30 03:04:00;;;;;;;39.58;6.20;;;7.80;99.90;;;;;;4879330;29;20053;-83
2022/01/30 03:06:26;;;;;;;36.22;6.50;;;8.30;99.90;;;;;;4879600;29;20112;-83
2022/01/30 03:08:52;;;;;;;29.77;6.38;;;7.50;99.90;;;;;;4879245;29;20080;-83
2022/01/30 03:11:18;;;;;;;22.48;4.70;;;8.50;99.90;;;;;;4883421;29;20079;-83
2022/01/30 03:13:43;;;;;;;29.70;5.47;;;8.10;99.90;;;;;;4875188;29;20044;-83
2022/01/30 03:16:09;;;;;;;33.58;5.90;;;8.00;99.90;;;;;;4852066;29;20045;-83
2022/01/30 03:18:36;;;;;;;36.85;5.47;;;9.00;99.90;;;;;;4894669;29;20052;-83
2022/01/30 03:21:02;;;;;;;32.05;5.95;;;7.40;99.90;;;;;;4880076;29;20048;-83
2022/01/30 03:23:29;;;;;;;27.48;4.95;;;6.70;99.90;;;;;;4862469;29;20049;-83
2022/01/30 03:25:58;;;;;;;27.35;5.88;;;7.60;99.90;;;;;;4878936;29;20053;-83
2022/01/30 03:28:25;;;;;;;41.42;6.95;;;7.10;99.90;;;;;;4880317;29;20044;-83
2022/01/30 03:30:54;;;;;;;25.30;5.13;;;9.00;99.90;;;;;;4877866;29;20500;-83
2022/01/30 03:33:21;;;;;;;37.50;6.65;;;7.00;99.90;;;;;;4880346;29;20049;-83
2022/01/30 03:35:47;;;;;;;36.10;7.63;;;7.20;99.90;;;;;;4876846;29;20072;-83
2022/01/30 03:38:14;;;;;;;35.33;6.57;;;9.30;99.90;;;;;;4880307;29;20044;-83
2022/01/30 03:40:40;;;;;;;39.08;7.13;;;8.80;99.90;;;;;;4878500;29;20516;-83
2022/01/30 03:43:05;;;;;;;30.10;6.13;;;8.70;99.90;;;;;;4878422;29;20056;-83
2022/01/30 03:45:31;;;;;;;32.17;6.72;;;7.30;99.90;;;;;;4896049;29;20092;-83
2022/01/30 03:47:57;;;;;;;32.25;5.88;;;8.40;99.90;;;;;;4878931;29;20421;-83
2022/01/30 03:50:24;;;;;;;34.30;6.13;;;8.80;99.90;;;;;;4864883;29;20048;-83
2022/01/30 03:52:50;;;;;;;24.85;5.90;;;7.60;99.90;;;;;;4875327;29;20564;-83
2022/01/30 03:55:16;;;;;;;28.92;5.43;;;9.20;99.90;;;;;;4879413;29;20036;-83
2022/01/30 03:57:41;;;;;;;25.45;5.55;;;9.30;99.90;;;;;;4878656;29;20123;-83
2022/01/30 04:00:08;;;;;;;25.50;4.55;;;7.40;99.90;;;;;;4861046;29;20132;-82
2022/01/30 04:02:34;;;;;;;23.48;5.47;;;7.40;99.90;;;;;;4880423;29;20044;-83
2022/01/30 04:05:00;;;;;;;22.65;4.45;;;7.50;99.90;;;;;;4879098;29;20401;-83
2022/01/30 04:07:26;;;;;;;25.25;5.28;;;7.50;99.90;;;;;;4878829;29;20063;-83
2022/01/30 04:09:53;;;;;;;27.42;5.18;;;7.40;99.90;;;;;;4878880;29;20067;-83
2022/01/30 04:12:19;;;;;;;26.02;6.68;;;7.60;99.90;;;;;;4878787;29;20168;-82
2022/01/30 04:14:48;;;;;;;31.38;5.68;;;7.50;99.90;;;;;;4863327;29;20131;-83
2022/01/30 04:17:14;;;;;;;24.05;5.13;;;7.50;99.90;;;;;;4866603;29;20132;-83
2022/01/30 04:19:40;;;;;;;43.70;7.30;;;8.80;99.90;;;;;;4885181;29;20052;-83
2022/01/30 04:22:06;;;;;;;29.63;6.22;;;7.50;99.90;;;;;;4884678;29;20048;-83
2022/01/30 04:24:32;;;;;;;31.15;6.18;;;7.50;99.90;;;;;;4867594;29;20095;-83
2022/01/30 04:26:58;;;;;;;20.55;4.55;;;9.20;99.90;;;;;;4869462;29;20056;-83
2022/01/30 04:29:24;;;;;;;20.20;5.82;;;7.90;99.90;;;;;;4884383;29;20076;-83
2022/01/30 04:31:50;;;;;;;25.77;5.72;;;7.50;99.90;;;;;;4884954;29;20135;-83
2022/01/30 04:34:17;;;;;;;25.45;7.25;;;7.50;99.90;;;;;;4884687;29;20160;-83
2022/01/30 04:36:58;;;;;;;33.95;5.63;;;7.30;99.90;;;;;;4884864;29;20053;-83
2022/01/30 04:52:51;;;;;;;29.15;6.43;;;7.50;99.90;;;;;;4882218;29;20084;-83
2022/01/30 04:56:43;;;;;;;26.65;4.85;;;7.40;99.90;;;;;;4905222;29;20047;-83
2022/01/30 04:58:28;;;;;;;28.83;5.38;;;7.40;99.90;;;;;;4881756;29;20048;-83
2022/01/30 05:03:36;;;;;;;27.00;5.22;;;7.90;99.90;;;;;;4884004;29;20520;-83
2022/01/30 05:06:07;;;;;;;22.05;5.70;;;7.40;99.90;;;;;;4882459;29;20044;-83
2022/01/30 05:08:33;;;;;;;22.70;5.53;;;7.50;99.90;;;;;;4884771;29;20055;-83
2022/01/30 05:11:02;;;;;;;35.58;5.82;;;7.60;99.90;;;;;;4884940;29;20370;-83
2022/01/30 05:13:31;;;;;;;34.95;5.65;;;9.40;99.90;;;;;;4883882;29;20132;-83
2022/01/30 05:15:57;;;;;;;21.92;5.18;;;7.60;99.90;;;;;;4883587;29;20144;-83
2022/01/30 05:18:25;;;;;;;22.75;5.05;;;7.60;99.90;;;;;;4884644;29;20073;-83
2022/01/30 05:20:51;;;;;;;26.35;5.10;;;7.60;99.90;;;;;;4884257;29;20131;-83
2022/01/30 05:23:17;;;;;;;32.78;6.45;;;7.60;99.90;;;;;;4868150;29;20123;-83
2022/01/30 05:25:45;;;;;;;28.83;5.40;;;7.60;99.90;;;;;;4883726;29;20096;-83
2022/01/30 05:28:11;;;;;;;27.10;6.57;;;7.50;99.90;;;;;;4863074;29;20111;-83
2022/01/30 05:30:37;;;;;;;30.38;5.72;;;7.50;99.90;;;;;;4897456;29;20040;-83
2022/01/30 05:33:03;;;;;;;28.63;5.43;;;7.50;99.90;;;;;;4885008;29;20855;-83
2022/01/30 05:35:29;;;;;;;36.17;6.13;;;7.70;99.90;;;;;;4882066;29;20123;-83
2022/01/30 05:37:55;;;;;;;35.15;5.57;;;7.50;99.90;;;;;;4880929;29;20044;-83
2022/01/30 05:40:22;;;;;;;26.02;5.75;;;7.50;99.90;;;;;;4859600;29;20111;-83
2022/01/30 05:42:48;;;;;;;38.08;5.78;;;7.40;99.90;;;;;;4897186;29;20396;-83
2022/01/30 05:45:20;;;;;;;43.95;6.32;;;7.40;99.90;;;;;;4881348;29;20051;-83
2022/01/30 05:47:55;;;;;;;36.67;7.65;;;7.40;99.90;;;;;;4880777;29;20104;-83
2022/01/30 05:50:21;;;;;;;28.80;5.45;;;7.40;99.90;;;;;;4880880;29;20044;-83
2022/01/30 05:52:46;;;;;;;31.65;5.47;;;7.50;99.90;;;;;;4880524;29;20063;-82
2022/01/30 05:55:12;;;;;;;38.10;6.30;;;8.80;99.90;;;;;;4896876;29;20056;-82
2022/01/30 05:57:38;;;;;;;43.40;6.65;;;8.20;99.90;;;;;;4864753;29;20404;-83
2022/01/30 06:00:06;;;;;;;30.75;6.97;;;9.30;99.90;;;;;;4880602;29;20441;-83
2022/01/30 06:02:32;;;;;;;35.35;6.45;;;7.60;99.90;;;;;;4896163;29;20049;-83
2022/01/30 06:04:58;;;;;;;30.30;5.90;;;7.70;99.90;;;;;;4881893;29;20053;-83
2022/01/30 06:07:29;;;;;;;33.95;7.55;;;9.40;99.90;;;;;;4879941;29;20060;-83
2022/01/30 06:09:54;;;;;;;35.42;5.72;;;8.60;99.90;;;;;;4881644;29;20044;-82
2022/01/30 06:12:20;;;;;;;45.05;6.35;;;7.80;99.90;;;;;;4865753;29;20059;-83
2022/01/30 06:14:47;;;;;;;26.02;5.53;;;8.80;99.90;;;;;;4879693;29;20044;-83
2022/01/30 06:17:14;;;;;;;35.35;6.53;;;7.60;99.90;;;;;;4879758;29;20044;-83
2022/01/30 06:19:39;;;;;;;36.08;6.78;;;8.40;99.90;;;;;;4880476;29;20517;-83
2022/01/30 06:22:05;;;;;;;29.67;6.45;;;9.30;99.90;;;;;;4881677;29;20036;-83
2022/01/30 06:24:30;;;;;;;49.35;8.60;;;7.70;99.90;;;;;;4897512;29;20049;-83
2022/01/30 06:26:56;;;;;;;33.17;6.75;;;7.60;99.90;;;;;;4878832;29;20395;-83
2022/01/30 06:29:22;;;;;;;38.85;6.15;;;7.70;99.90;;;;;;4896251;29;20055;-83
2022/01/30 06:31:47;;;;;;;26.25;5.22;;;8.90;99.90;;;;;;4875691;29;20409;-83
2022/01/30 06:34:13;;;;;;;36.58;7.32;;;9.00;99.90;;;;;;4879262;29;20509;-83
2022/01/30 06:36:39;;;;;;;33.40;6.68;;;7.50;99.90;;;;;;4880361;29;20045;-83
2022/01/30 06:39:04;;;;;;;39.45;6.63;;;8.70;99.90;;;;;;4878590;29;20048;-83
2022/01/30 06:41:30;;;;;;;27.77;5.43;;;7.90;99.90;;;;;;4896201;29;20103;-83
2022/01/30 06:43:56;;;;;;;40.05;6.13;;;9.30;99.90;;;;;;4880008;29;20060;-83
2022/01/30 06:46:21;;;;;;;30.23;6.50;;;9.30;99.90;;;;;;4880273;29;20040;-83
2022/01/30 06:48:47;;;;;;;33.33;6.18;;;7.60;99.90;;;;;;4862336;29;20060;-83
2022/01/30 06:51:13;;;;;;;31.77;6.18;;;9.30;99.90;;;;;;4880041;29;20127;-83
2022/01/30 06:53:38;;;;;;;30.35;7.03;;;8.30;99.90;;;;;;4895019;29;20052;-83
2022/01/30 06:56:06;;;;;;;34.85;7.72;;;7.50;99.90;;;;;;4881860;29;20044;-83
2022/01/30 06:58:31;;;;;;;39.92;6.22;;;7.60;99.90;;;;;;4879913;29;20052;-83
2022/01/30 07:00:57;;;;;;;29.52;5.93;;;9.40;99.90;;;;;;4885064;29;20052;-82
2022/01/30 07:03:23;;;;;;;29.63;6.05;;;8.30;99.90;;;;;;4894989;29;20044;-83
2022/01/30 07:05:48;;;;;;;39.15;5.78;;;7.40;99.90;;;;;;4879522;29;20044;-83
2022/01/30 07:08:15;;;;;;;35.17;6.95;;;7.30;99.90;;;;;;4875657;29;20053;-83
2022/01/30 07:10:40;;;;;;;23.80;5.32;;;8.40;99.90;;;;;;4879842;29;20135;-82
2022/01/30 07:13:08;;;;;;;38.50;8.50;;;8.70;99.90;;;;;;4887523;29;20465;-83
2022/01/30 07:15:34;;;;;;;27.30;6.30;;;8.00;99.90;;;;;;4879596;29;20485;-83
2022/01/30 07:18:00;;;;;;;34.80;6.40;;;7.40;99.90;;;;;;4878984;29;20044;-83
2022/01/30 07:20:25;;;;;;;42.38;6.05;;;8.80;99.90;;;;;;4879313;29;20473;-83
2022/01/30 07:22:51;;;;;;;33.03;5.32;;;7.10;99.90;;;;;;4878558;29;20052;-83
2022/01/30 07:25:17;;;;;;;28.05;6.15;;;7.10;99.90;;;;;;4879698;29;20058;-83
2022/01/30 07:27:42;;;;;;;23.65;4.90;;;8.70;99.90;;;;;;4879617;29;20522;-83
2022/01/30 07:30:09;;;;;;;33.10;5.43;;;7.30;99.90;;;;;;4879157;29;20417;-83
2022/01/30 07:32:34;;;;;;;30.05;6.00;;;7.20;99.90;;;;;;4879068;29;20504;-83
2022/01/30 07:35:00;;;;;;;22.77;6.57;;;7.20;99.90;;;;;;4874197;29;20116;-83
2022/01/30 07:37:27;;;;;;;45.92;6.60;;;7.20;99.90;;;;;;4873098;29;20565;-83
2022/01/30 07:39:53;;;;;;;23.35;6.10;;;7.20;99.90;;;;;;4878693;29;20048;-83
2022/01/30 07:42:19;;;;;;;24.42;4.80;;;7.20;99.90;;;;;;4863731;29;20059;-83
2022/01/30 07:44:48;;;;;;;43.00;7.10;;;7.60;99.90;;;;;;4880104;29;20049;-83
2022/01/30 07:47:13;;;;;;;32.72;5.95;;;7.10;99.90;;;;;;4895800;29;20080;-83
2022/01/30 07:49:39;;;;;;;36.95;6.22;;;8.20;99.90;;;;;;4879233;29;20083;-83
2022/01/30 07:52:05;;;;;;;31.10;6.57;;;7.10;99.90;;;;;;4864739;29;20044;-83
2022/01/30 07:54:32;;;;;;;40.05;7.88;;;7.10;99.90;;;;;;4877324;29;20076;-83
2022/01/30 07:56:58;;;;;;;35.35;5.63;;;8.30;99.90;;;;;;4875394;29;20405;-83
2022/01/30 07:59:23;;;;;;;31.63;6.13;;;7.60;99.90;;;;;;4879561;29;20441;-82
2022/01/30 08:01:49;;;;;;;33.17;6.20;;;8.80;99.90;;;;;;4868021;29;20132;-83
2022/01/30 08:04:15;;;;;;;41.65;5.82;;;7.70;99.90;;;;;;4881167;29;20620;-83
2022/01/30 08:06:40;;;;;;;31.27;7.45;;;7.20;99.90;;;;;;4878466;29;20040;-83
2022/01/30 08:09:06;;;;;;;29.45;5.78;;;7.30;99.90;;;;;;4864413;29;20048;-83
2022/01/30 08:11:32;;;;;;;36.33;5.95;;;8.00;99.90;;;;;;4862314;29;20056;-82
2022/01/30 08:13:57;;;;;;;41.92;7.43;;;7.40;99.90;;;;;;4892707;29;20047;-83
2022/01/30 08:16:24;;;;;;;41.10;8.00;;;8.70;99.90;;;;;;4878435;29;20044;-83
2022/01/30 08:18:50;;;;;;;65.75;8.52;;;7.60;99.90;;;;;;4878238;29;20049;-82
2022/01/30 08:21:16;;;;;;;47.00;8.82;;;8.90;99.90;;;;;;4883551;29;20051;-82
2022/01/30 08:23:41;;;;;;;44.05;7.75;;;7.40;99.90;;;;;;4880879;29;20044;-82
2022/01/30 08:26:07;;;;;;;55.28;9.20;;;9.00;99.90;;;;;;4879461;29;20481;-82
2022/01/30 08:28:32;;;;;;;53.53;8.80;;;8.20;99.90;;;;;;4880921;29;20049;-83
2022/01/30 08:30:58;;;;;;;41.88;6.63;;;7.40;99.90;;;;;;4879700;29;20052;-82
2022/01/30 08:33:24;;;;;;;42.42;7.22;;;7.50;99.90;;;;;;4878073;29;20472;-82
2022/01/30 08:35:50;;;;;;;43.72;7.70;;;9.10;99.90;;;;;;4893130;29;20052;-83
2022/01/30 08:38:18;;;;;;;39.03;7.50;;;7.50;99.90;;;;;;4878038;29;20052;-83
2022/01/30 08:40:46;;;;;;;32.67;6.30;;;7.40;99.90;;;;;;4862411;29;20040;-82
2022/01/30 08:43:12;;;;;;;34.55;5.93;;;9.20;99.90;;;;;;4879452;29;20037;-82
2022/01/30 08:45:37;;;;;;;33.85;5.85;;;7.20;99.90;;;;;;4886031;29;20044;-82
2022/01/30 08:48:03;;;;;;;43.95;6.40;;;7.20;99.90;;;;;;4878106;29;20051;-83
2022/01/30 08:50:29;;;;;;;42.63;6.78;;;7.20;99.90;;;;;;4878435;29;20143;-82
2022/01/30 08:52:55;;;;;;;38.83;7.10;;;7.10;99.90;;;;;;4877879;29;20045;-83
2022/01/30 08:55:21;;;;;;;39.47;7.90;;;7.20;99.90;;;;;;4893010;29;20048;-82
2022/01/30 08:57:47;;;;;;;39.60;6.50;;;8.80;99.90;;;;;;4890755;29;20516;-82
2022/01/30 09:00:15;;;;;;;41.30;7.45;;;7.20;99.90;;;;;;4877944;29;20040;-82
2022/01/30 09:02:42;;;;;;;37.53;6.57;;;7.10;99.90;;;;;;4879757;29;20417;-82
2022/01/30 09:05:09;;;;;;;42.30;8.30;;;7.10;99.90;;;;;;4882144;29;20048;-82
2022/01/30 09:07:36;;;;;;;40.03;7.50;;;7.20;99.90;;;;;;4878776;29;20103;-82
2022/01/30 09:10:03;;;;;;;46.05;6.13;;;7.30;99.90;;;;;;4881179;29;20044;-82
2022/01/30 09:12:29;;;;;;;47.90;7.40;;;7.40;99.90;;;;;;4880017;29;20048;-82
2022/01/30 09:14:55;;;;;;;36.90;5.65;;;7.30;99.90;;;;;;4865128;29;20100;-82
2022/01/30 09:17:22;;;;;;;34.85;5.85;;;7.30;99.90;;;;;;4895481;29;20132;-82
2022/01/30 09:19:48;;;;;;;42.70;6.68;;;7.30;99.90;;;;;;4893008;29;21082;-82
2022/01/30 09:22:16;;;;;;;41.35;7.28;;;7.40;99.90;;;;;;4880238;29;20036;-82
2022/01/30 09:24:42;;;;;;;40.63;6.30;;;7.40;99.90;;;;;;4890368;29;20057;-82
2022/01/30 09:27:08;;;;;;;21.13;4.72;;;7.40;99.90;;;;;;4897587;29;20044;-83
2022/01/30 09:29:35;;;;;;;33.50;6.38;;;8.60;99.90;;;;;;4880796;29;20064;-83
2022/01/30 09:32:05;;;;;;;29.80;5.50;;;7.50;99.90;;;;;;4881234;29;20108;-83
2022/01/30 09:34:31;;;;;;;34.05;5.47;;;7.60;99.90;;;;;;4865527;29;20052;-85
2022/01/30 09:36:57;;;;;;;39.92;6.50;;;7.60;99.90;;;;;;4890675;29;20115;-83
2022/01/30 09:39:24;;;;;;;38.28;7.63;;;9.30;99.90;;;;;;4885169;29;20144;-85
2022/01/30 09:41:52;;;;;;;47.58;8.45;;;8.10;99.90;;;;;;4882002;29;20100;-83
2022/01/30 09:44:20;;;;;;;38.10;6.15;;;7.80;99.90;;;;;;4885913;29;20044;-83
2022/01/30 09:46:47;;;;;;;38.13;6.13;;;7.80;99.90;;;;;;4900134;29;20489;-83
2022/01/30 09:49:13;;;;;;;43.17;6.90;;;9.10;99.90;;;;;;4882650;29;20052;-83
2022/01/30 09:51:40;;;;;;;40.22;6.40;;;7.80;99.90;;;;;;4882557;29;20048;-83
2022/01/30 09:54:08;;;;;;;45.25;7.30;;;7.70;99.90;;;;;;4883963;29;20055;-83
2022/01/30 09:56:34;;;;;;;51.13;7.15;;;7.80;99.90;;;;;;4888310;29;20045;-84
2022/01/30 09:59:00;;;;;;;41.67;6.95;;;7.20;99.90;;;;;;4886781;29;20254;-84
2022/01/30 10:01:30;;;;;;;44.60;7.30;;;8.40;99.90;;;;;;4881531;29;20048;-83
2022/01/30 10:03:56;;;;;;;41.55;7.40;;;7.90;99.90;;;;;;4898852;29;20115;-83
2022/01/30 10:06:24;;;;;;;46.80;6.55;;;7.80;99.90;;;;;;4886024;29;20131;-83
2022/01/30 10:08:54;;;;;;;49.80;8.65;;;9.50;99.90;;;;;;4910055;29;20043;-83
2022/01/30 10:11:34;;;;;;;41.78;8.48;;;7.80;99.90;;;;;;4881189;29;20049;-83
2022/01/30 10:14:06;;;;;;;41.30;7.38;;;9.60;99.90;;;;;;4896597;29;20056;-83
2022/01/30 10:16:40;;;;;;;40.20;8.57;;;7.70;99.90;;;;;;4862802;29;20120;-84
2022/01/30 10:19:12;;;;;;;36.97;6.03;;;7.60;99.90;;;;;;4894390;29;20056;-83
2022/01/30 10:21:39;;;;;;;39.65;6.28;;;7.50;99.90;;;;;;4883836;29;20475;-83
2022/01/30 10:24:18;;;;;;;41.63;6.93;;;8.10;99.90;;;;;;4881915;29;20430;-83
2022/01/30 10:26:44;;;;;;;47.25;7.68;;;7.50;99.90;;;;;;4880886;29;20056;-83
2022/01/30 10:29:18;;;;;;;45.03;6.80;;;7.50;99.90;;;;;;4894308;29;20044;-83
2022/01/30 10:32:03;;;;;;;49.33;7.95;;;7.50;99.90;;;;;;4879036;29;20390;-83
2022/01/30 10:34:30;;;;;;;41.70;7.07;;;7.60;99.90;;;;;;4878143;29;20454;-84
2022/01/30 10:37:18;;;;;;;34.60;6.60;;;7.60;99.90;;;;;;4880581;29;20048;-84
2022/01/30 10:39:57;;;;;;;46.10;7.47;;;7.70;99.90;;;;;;4876158;29;20033;-84
2022/01/30 10:42:32;;;;;;;41.03;7.07;;;7.70;99.90;;;;;;4881224;29;20056;-84
2022/01/30 10:44:58;;;;;;;60.22;8.50;;;7.80;99.90;;;;;;4880666;29;20037;-84
2022/01/30 10:47:24;;;;;;;55.35;8.90;;;7.80;99.90;;;;;;4864754;29;20128;-83
2022/01/30 10:49:50;;;;;;;55.65;8.05;;;7.90;99.90;;;;;;4892667;29;20048;-84
2022/01/30 10:52:16;;;;;;;47.15;7.75;;;7.90;99.90;;;;;;4900276;29;20044;-83
2022/01/30 10:54:41;;;;;;;44.67;7.03;;;8.20;99.90;;;;;;4900065;29;20056;-82
2022/01/30 10:57:10;;;;;;;40.28;7.35;;;7.90;99.90;;;;;;4883029;29;20079;-83
2022/01/30 10:59:42;;;;;;;36.80;7.10;;;7.90;99.90;;;;;;4874251;29;20370;-83
2022/01/30 11:02:11;;;;;;;36.42;6.65;;;8.30;99.90;;;;;;4895599;29;20497;-83
2022/01/30 11:04:37;;;;;;;66.80;8.68;;;8.00;99.90;;;;;;4892590;29;20057;-83
2022/01/30 11:07:04;;;;;;;41.53;7.53;;;7.90;99.90;;;;;;4879481;29;20042;-83
2022/01/30 11:09:36;;;;;;;31.30;6.38;;;7.80;99.90;;;;;;4882329;29;20461;-83
2022/01/30 11:12:05;;;;;;;45.08;7.95;;;7.70;99.90;;;;;;4877611;29;20064;-83
2022/01/30 11:14:38;;;;;;;44.97;7.15;;;7.70;99.90;;;;;;4894290;29;20047;-83
2022/01/30 11:17:07;;;;;;;44.17;7.25;;;7.60;99.90;;;;;;4878985;29;20440;-83
2022/01/30 11:19:37;;;;;;;41.63;6.55;;;8.20;99.90;;;;;;4867741;29;20398;-83
2022/01/30 11:22:11;;;;;;;39.25;6.95;;;8.30;99.90;;;;;;4880847;29;20083;-83
2022/01/30 11:24:46;;;;;;;35.60;6.65;;;7.70;99.90;;;;;;4879537;29;20052;-83
2022/01/30 11:27:13;;;;;;;43.10;6.93;;;7.90;99.90;;;;;;4878096;29;20505;-83
2022/01/30 11:29:39;;;;;;;40.20;7.50;;;7.80;99.90;;;;;;4878482;29;20056;-83
2022/01/30 11:32:06;;;;;;;42.78;7.70;;;7.90;99.90;;;;;;4893247;29;20060;-83
2022/01/30 11:34:34;;;;;;;49.05;7.45;;;7.90;99.90;;;;;;4855096;29;20107;-83
2022/01/30 11:37:01;;;;;;;42.00;6.28;;;8.00;99.90;;;;;;4877709;29;20048;-83
2022/01/30 11:39:27;;;;;;;39.30;6.10;;;8.00;99.90;;;;;;4878123;29;20045;-83
2022/01/30 11:42:11;;;;;;;37.53;6.65;;;8.10;99.90;;;;;;4880631;29;20111;-83
2022/01/30 11:44:39;;;;;;;40.88;6.07;;;7.90;99.90;;;;;;4891940;29;20079;-83
2022/01/30 11:47:07;;;;;;;41.28;6.70;;;7.90;99.90;;;;;;4895968;29;20107;-83
2022/01/30 11:49:43;;;;;;;46.35;6.65;;;8.00;99.90;;;;;;4877877;29;20056;-83
2022/01/30 11:52:11;;;;;;;46.95;7.30;;;8.00;99.90;;;;;;4877458;29;20044;-83
2022/01/30 11:54:41;;;;;;;41.22;6.20;;;8.00;99.90;;;;;;4896018;29;20405;-83
2022/01/30 11:57:21;;;;;;;43.83;7.47;;;8.10;99.90;;;;;;4876733;29;20060;-83
2022/01/30 11:59:50;;;;;;;45.78;7.25;;;8.10;99.90;;;;;;4860938;29;20060;-83
2022/01/30 12:02:31;;;;;;;45.75;7.15;;;8.40;99.90;;;;;;4878699;29;20048;-83
2022/01/30 12:04:59;;;;;;;35.95;5.80;;;8.50;99.90;;;;;;4880245;29;20052;-83
2022/01/30 12:07:40;;;;;;;41.85;7.90;;;8.40;99.90;;;;;;4878757;29;20044;-83
2022/01/30 12:10:17;;;;;;;40.03;6.75;;;8.50;99.90;;;;;;4875212;29;20045;-83
2022/01/30 12:12:52;;;;;;;37.40;6.30;;;8.50;99.90;;;;;;4877345;29;20056;-83
2022/01/30 12:15:40;;;;;;;46.88;6.72;;;8.50;99.90;;;;;;4877136;29;20056;-83
2022/01/30 12:18:09;;;;;;;46.08;7.22;;;8.40;99.90;;;;;;4876885;29;20151;-83
2022/01/30 12:20:56;;;;;;;40.88;7.10;;;8.30;99.90;;;;;;4877063;29;20112;-83
2022/01/30 12:23:33;;;;;;;42.72;5.85;;;8.20;99.90;;;;;;4876026;29;20236;-83
2022/01/30 12:26:05;;;;;;;37.40;6.28;;;9.50;99.90;;;;;;4877056;29;20049;-83
2022/01/30 12:28:44;;;;;;;24.95;5.22;;;8.70;99.90;;;;;;4878764;29;20176;-83
2022/01/30 12:31:34;;;;;;;30.45;5.82;;;8.10;99.90;;;;;;4879326;29;20053;-83
2022/01/30 12:34:05;;;;;;;34.17;6.05;;;8.00;99.90;;;;;;4897149;29;20064;-83
2022/01/30 12:36:37;;;;;;;39.55;6.68;;;8.00;99.90;;;;;;4881064;29;20445;-83
2022/01/30 12:39:11;;;;;;;45.65;6.47;;;8.10;99.90;;;;;;4886147;29;20044;-83
2022/01/30 12:41:38;;;;;;;38.08;5.97;;;9.10;99.90;;;;;;4879946;29;20036;-83
2022/01/30 12:44:07;;;;;;;36.03;5.65;;;9.30;99.90;;;;;;4881353;29;20044;-83
2022/01/30 12:46:39;;;;;;;35.30;6.32;;;8.10;99.90;;;;;;4901027;29;20041;-83
2022/01/30 12:49:15;;;;;;;39.70;6.68;;;9.00;99.90;;;;;;4882411;29;20064;-83
2022/01/30 12:51:44;;;;;;;39.42;6.47;;;8.00;99.90;;;;;;4898786;29;20512;-83
2022/01/30 12:54:10;;;;;;;40.03;7.15;;;8.00;99.90;;;;;;4885612;29;20067;-86
2022/01/30 12:56:36;;;;;;;42.50;7.05;;;8.50;99.90;;;;;;4868165;29;20051;-82
2022/01/30 12:59:07;;;;;;;42.92;7.70;;;7.90;99.90;;;;;;4890140;29;20123;-82
2022/01/30 13:01:35;;;;;;;38.92;7.03;;;8.00;99.90;;;;;;4881049;29;20064;-82
2022/01/30 13:04:03;;;;;;;41.15;6.07;;;9.80;99.90;;;;;;4884437;29;20053;-82
2022/01/30 13:06:32;;;;;;;48.53;6.80;;;8.10;99.90;;;;;;4881590;29;20143;-81
2022/01/30 13:08:57;;;;;;;45.42;7.13;;;7.90;99.90;;;;;;4891013;29;20109;-81
2022/01/30 13:11:24;;;;;;;44.95;6.47;;;7.90;99.90;;;;;;4904706;29;20476;-82
2022/01/30 13:13:55;;;;;;;43.28;7.32;;;7.90;99.90;;;;;;4883205;29;20052;-82
2022/01/30 13:16:30;;;;;;;50.15;6.97;;;7.80;99.90;;;;;;4883266;29;20084;-82
2022/01/30 13:18:56;;;;;;;47.92;7.68;;;9.60;99.90;;;;;;4881294;29;20076;-82
2022/01/30 13:21:24;;;;;;;40.80;6.20;;;7.80;99.90;;;;;;4881155;29;20076;-82
2022/01/30 13:23:52;;;;;;;45.75;7.50;;;8.00;99.90;;;;;;4879653;29;20584;-82
2022/01/30 13:26:28;;;;;;;34.28;6.82;;;9.00;99.90;;;;;;4881573;29;20040;-82
2022/01/30 13:28:54;;;;;;;48.17;7.70;;;7.70;99.90;;;;;;4895078;29;20049;-82
2022/01/30 13:31:20;;;;;;;40.47;6.78;;;9.50;99.90;;;;;;4879956;29;20481;-82
2022/01/30 13:34:04;;;;;;;51.38;6.95;;;7.90;99.90;;;;;;4878869;29;20469;-82
2022/01/30 13:36:30;;;;;;;35.30;6.38;;;7.90;99.90;;;;;;4880038;29;20069;-82